This is the latest recevied weather packets stored in our database for station/object WX4SGA. If no packets are shown the sender has not sent any weather packets the latest 10 day(s).
| Time | Temp. | Humidity | Pressure | Rain* | Wind** | Luminosity | Snow |
|---|---|---|---|---|---|---|---|
| 1777485258 | 31.11° C | 43% | 1012.5 hPa | 0 mm | - | 890 W/m² | - |
| 1777484954 | 31.11° C | 44% | 1012.5 hPa | 0 mm | - | 850 W/m² | - |
| 1777484651 | 30.56° C | 44% | 1012.5 hPa | 0 mm | - | 863 W/m² | - |
| 1777484348 | 31.11° C | 44% | 1012.9 hPa | 0 mm | - | 861 W/m² | - |
| 1777484043 | 31.11° C | 45% | 1012.9 hPa | 0 mm | - | 875 W/m² | - |
| 1777483740 | 31.11° C | 44% | 1012.9 hPa | 0 mm | - | 843 W/m² | - |
| 1777483436 | 30.56° C | 45% | 1012.9 hPa | 0 mm | - | 843 W/m² | - |
| 1777483131 | 30.56° C | 46% | 1013.2 hPa | 0 mm | - | 839 W/m² | - |
| 1777482828 | 31.11° C | 46% | 1013.2 hPa | 0 mm | - | 839 W/m² | - |
| 1777482524 | 30.56° C | 46% | 1013.5 hPa | 0 mm | - | 838 W/m² | - |
| 1777482222 | 30.56° C | 47% | 1013.5 hPa | 0 mm | - | 807 W/m² | - |
| 1777481919 | 30.56° C | 47% | 1013.5 hPa | 0 mm | - | 840 W/m² | - |
| 1777481617 | 30° C | 48% | 1013.5 hPa | 0 mm | - | 825 W/m² | - |
| 1777481313 | 30° C | 50% | 1013.5 hPa | 0 mm | - | 824 W/m² | - |
| 1777481010 | 29.44° C | 53% | 1013.5 hPa | 0 mm | - | 821 W/m² | - |
| 1777480706 | 29.44° C | 52% | 1013.5 hPa | 0 mm | - | 803 W/m² | - |
| 1777480403 | 28.89° C | 55% | 1013.5 hPa | 0 mm | - | 795 W/m² | - |
| 1777480099 | 30° C | 53% | 1013.9 hPa | 0 mm | - | 791 W/m² | - |
| 1777479796 | 28.89° C | 55% | 1014.2 hPa | 0 mm | - | 784 W/m² | - |
| 1777479493 | 28.89° C | 57% | 1014.2 hPa | 0 mm | - | 770 W/m² | - |
| 1777479189 | 28.89° C | 59% | 1014.6 hPa | 0 mm | - | 760 W/m² | - |
| 1777478881 | 28.33° C | 59% | 1014.6 hPa | 0 mm | - | 754 W/m² | - |
| 1777478576 | 27.78° C | 61% | 1014.6 hPa | 0 mm | - | 751 W/m² | - |
| 1777478274 | 27.22° C | 61% | 1014.6 hPa | 0 mm | - | 745 W/m² | - |
| 1777477970 | 27.22° C | 62% | 1014.6 hPa | 0 mm | - | 734 W/m² | - |
* Rain latest hour (hover to see other rain measurements)
** Current wind speed in m/s (hover to see current wind gust speed)